Portada
METAR-TAF:

METAR-TAF

Aeroports :

Kansas City, Missouri, Estats Units d'Amèrica

latitud: 39-17-50N, longitud: 094-43-50W, altitud: 312 m

Observació

L'informe es va fer fa 27 minuts, a les 15:53 UTC
Vent 10 kt del Est
Temperatura 13°C
Humitat 38%
Pressió 1029 hPa
Visibilitat: 16.1 km
Escasses núvols a una alçada de 25000 ft

METAR: KMCI 231553Z 09010KT 10SM FEW250 13/M01 A3038 RMK AO2 SLP285 T01281011

Hora: 11:20 (16:20 UTC)

Pronòstic

L'informe es va fer fa 5 hores i 0 minuts, a les 11:20 UTC
Pronòstic vàlid del 23 a les 12 UTC al 24 a les 12 UTC
Vent 4 kt del Nord-Est
Visibilitat: 10 km
Cel clar
A partir de les 23 a les 1500 UTC
Vent 9 kt del Est/Nord-Est
Visibilitat: 10 km
Núvols disperses a una alçada de 25000 ft

TAF: KMCI 231120Z 2312/2412 04004KT P6SM SKC FM231500 07009KT P6SM SCT250

Observacions i pronòstics meteorològics de més de 4000 aeroports (METAR i TAF).

Les estacions disponibles són els punts grocs i vermells al mapa.

Posi el ratolí al punt desitjat per veure el nom de l'estació.

Feu clic per veure les observacions i els pronòstics meteorològics.

Per canviar el mapa: feu clic els botons verds amb una creu de color negre per apropar; al botó verd amb un guió per allunyar la imatge; o en les fletxes verdes per a mapes adjacents.


METAR-TAF: